createdAt,value
2023-04-27T00:01:16.942Z,67.78
2023-04-27T00:03:46.036Z,67.97
2023-04-27T00:06:12.971Z,68.03
2023-04-27T00:08:39.732Z,67.94
2023-04-27T00:11:06.871Z,68.01
2023-04-27T00:13:33.750Z,67.88
2023-04-27T00:16:03.773Z,68.08
2023-04-27T00:18:31.393Z,67.80
2023-04-27T00:20:58.414Z,67.97
2023-04-27T00:23:25.182Z,68.17
2023-04-27T00:25:52.049Z,68.26
2023-04-27T00:28:18.935Z,68.15
2023-04-27T00:30:45.810Z,68.21
2023-04-27T00:33:12.598Z,68.46
2023-04-27T00:35:39.317Z,68.56
2023-04-27T00:38:06.039Z,68.74
2023-04-27T00:40:32.852Z,68.70
2023-04-27T00:42:59.592Z,68.64
2023-04-27T00:45:26.611Z,68.96
2023-04-27T00:47:53.594Z,69.12
2023-04-27T00:50:24.138Z,69.25
2023-04-27T00:52:51.008Z,69.28
2023-04-27T00:55:17.905Z,69.26
2023-04-27T00:57:44.643Z,69.55
2023-04-27T01:00:12.041Z,69.49
2023-04-27T01:02:39.418Z,69.22
2023-04-27T01:05:07.243Z,69.21
2023-04-27T01:07:34.050Z,68.89
2023-04-27T01:10:00.855Z,69.04
2023-04-27T01:12:27.655Z,69.18
2023-04-27T01:14:54.407Z,68.90
2023-04-27T01:17:22.120Z,68.95
2023-04-27T01:19:50.072Z,69.08
2023-04-27T01:22:17.031Z,68.98
2023-04-27T01:24:43.878Z,68.84
2023-04-27T01:27:10.591Z,68.94
2023-04-27T01:29:37.407Z,68.70
2023-04-27T01:32:04.886Z,68.79
2023-04-27T01:34:31.649Z,68.65
2023-04-27T01:36:58.624Z,68.66
2023-04-27T01:39:25.789Z,68.70
2023-04-27T01:41:53.117Z,68.85
2023-04-27T01:44:21.267Z,69.00
2023-04-27T01:46:48.260Z,68.83
2023-04-27T01:49:15.416Z,68.92
2023-04-27T01:51:42.526Z,68.86
2023-04-27T01:54:09.408Z,69.11
2023-04-27T01:56:36.118Z,69.26
2023-04-27T01:59:02.895Z,68.90
2023-04-27T02:01:31.567Z,69.22
2023-04-27T02:03:58.550Z,69.68
2023-04-27T02:06:25.414Z,69.93
2023-04-27T02:08:52.335Z,70.07
2023-04-27T02:11:19.037Z,70.42
2023-04-27T02:13:45.770Z,70.09
2023-04-27T02:16:13.217Z,70.49
2023-04-27T02:18:40.574Z,70.53
2023-04-27T02:21:10.949Z,70.35
2023-04-27T02:23:37.994Z,70.68
2023-04-27T02:26:04.803Z,70.69
2023-04-27T02:28:32.417Z,70.79
2023-04-27T02:30:59.859Z,70.99
2023-04-27T02:33:26.970Z,70.53
2023-04-27T02:35:53.698Z,70.53
2023-04-27T02:38:20.555Z,70.67
2023-04-27T02:40:47.359Z,70.61
2023-04-27T02:43:14.083Z,70.83
2023-04-27T02:45:40.903Z,70.63
2023-04-27T02:48:09.072Z,70.53
2023-04-27T02:50:41.082Z,70.83
2023-04-27T02:53:08.052Z,70.47
2023-04-27T02:55:34.830Z,70.73
2023-04-27T02:58:01.857Z,70.52
2023-04-27T03:00:28.605Z,70.64
2023-04-27T03:02:55.648Z,70.45
2023-04-27T03:05:23.168Z,70.49
2023-04-27T03:07:49.963Z,70.65
2023-04-27T03:10:16.753Z,70.34
2023-04-27T03:12:43.622Z,70.17
2023-04-27T03:15:10.637Z,70.10
2023-04-27T03:17:37.441Z,70.11
2023-04-27T03:20:08.818Z,70.24
2023-04-27T03:22:36.610Z,70.46
2023-04-27T03:25:03.847Z,70.43
2023-04-27T03:27:30.906Z,70.16
2023-04-27T03:29:57.732Z,70.54
2023-04-27T03:32:24.611Z,70.42
2023-04-27T03:34:54.972Z,70.37
2023-04-27T03:37:21.825Z,70.44
2023-04-27T03:39:48.553Z,70.43
2023-04-27T03:42:15.395Z,70.46
2023-04-27T03:44:42.248Z,70.25
2023-04-27T03:47:09.878Z,70.22
2023-04-27T03:49:36.679Z,70.18
2023-04-27T03:52:03.884Z,70.09
2023-04-27T03:54:33.728Z,70.14
2023-04-27T03:57:02.413Z,70.23
2023-04-27T03:59:30.379Z,70.40
2023-04-27T04:01:59.543Z,70.41
2023-04-27T04:04:28.130Z,70.47
2023-04-27T04:06:55.135Z,70.37
2023-04-27T04:09:23.816Z,70.48
2023-04-27T04:11:52.281Z,70.62
2023-04-27T04:14:19.188Z,70.48
2023-04-27T04:16:47.845Z,70.52
2023-04-27T04:19:17.272Z,70.69
2023-04-27T04:21:44.189Z,70.83
2023-04-27T04:24:11.308Z,70.47
2023-04-27T04:26:39.604Z,70.36
2023-04-27T04:29:11.215Z,70.38
2023-04-27T04:31:38.397Z,70.62
2023-04-27T04:34:05.248Z,70.62
2023-04-27T04:36:32.340Z,70.52
2023-04-27T04:38:59.362Z,70.57
2023-04-27T04:41:26.191Z,70.44
2023-04-27T04:43:53.068Z,70.37
2023-04-27T04:46:20.159Z,70.81
2023-04-27T04:48:47.126Z,70.61
2023-04-27T04:51:14.013Z,70.74
2023-04-27T04:53:40.971Z,70.42
2023-04-27T04:56:14.046Z,70.56
2023-04-27T04:58:40.976Z,70.67
2023-04-27T05:01:07.954Z,70.85
2023-04-27T05:03:35.090Z,70.97
2023-04-27T05:06:02.176Z,70.97
2023-04-27T05:08:28.917Z,70.92
2023-04-27T05:10:55.649Z,71.09
2023-04-27T05:13:22.779Z,70.96
2023-04-27T05:15:49.737Z,70.99
2023-04-27T05:18:16.593Z,71.00
2023-04-27T05:20:43.401Z,70.86
2023-04-27T05:23:10.260Z,70.88
2023-04-27T05:25:41.733Z,70.71
2023-04-27T05:28:09.843Z,71.10
2023-04-27T05:30:36.927Z,71.11
2023-04-27T05:33:04.468Z,70.84
2023-04-27T05:35:31.814Z,71.06
2023-04-27T05:37:58.631Z,70.99
2023-04-27T05:40:25.581Z,70.92
2023-04-27T05:42:52.412Z,70.79
2023-04-27T05:45:19.192Z,70.84
2023-04-27T05:47:46.055Z,70.71
2023-04-27T05:50:13.024Z,70.83
2023-04-27T05:52:39.827Z,70.80
2023-04-27T05:55:08.219Z,70.53
2023-04-27T05:57:35.085Z,70.54
2023-04-27T06:00:02.201Z,70.58
2023-04-27T06:02:29.226Z,70.62
2023-04-27T06:04:56.303Z,70.77
2023-04-27T06:07:23.125Z,70.74
2023-04-27T06:09:49.994Z,71.08
2023-04-27T06:12:17.097Z,70.99
2023-04-27T06:14:43.993Z,71.55
2023-04-27T06:17:10.850Z,71.19
2023-04-27T06:19:37.671Z,71.30
2023-04-27T06:22:04.512Z,71.76
2023-04-27T06:24:31.414Z,71.76
2023-04-27T06:26:58.416Z,71.73
2023-04-27T06:29:25.255Z,72.15
2023-04-27T06:31:52.046Z,72.12
2023-04-27T06:34:19.073Z,72.01
2023-04-27T06:36:45.995Z,72.34
2023-04-27T06:39:13.121Z,72.20
2023-04-27T06:41:40.129Z,71.88
2023-04-27T06:44:07.368Z,71.85
2023-04-27T06:46:34.348Z,71.64
2023-04-27T06:49:01.890Z,71.46
2023-04-27T06:51:28.640Z,71.46
2023-04-27T06:53:57.395Z,71.18
2023-04-27T06:56:24.202Z,71.34
2023-04-27T06:58:51.166Z,71.58
2023-04-27T07:01:17.923Z,71.59
2023-04-27T07:03:44.890Z,71.72
2023-04-27T07:06:11.815Z,72.21
2023-04-27T07:08:38.565Z,72.45
2023-04-27T07:11:05.553Z,72.47
2023-04-27T07:13:32.275Z,72.50
2023-04-27T07:15:59.139Z,72.09
2023-04-27T07:18:28.288Z,71.75
2023-04-27T07:20:55.930Z,70.85
2023-04-27T07:23:22.673Z,70.86
2023-04-27T07:25:49.824Z,71.30
2023-04-27T07:28:16.728Z,71.49
2023-04-27T07:30:43.522Z,71.66
2023-04-27T07:33:10.550Z,72.45
2023-04-27T07:35:37.461Z,73.24
2023-04-27T07:38:04.267Z,73.12
2023-04-27T07:40:33.026Z,72.95
2023-04-27T07:43:00.042Z,73.32
2023-04-27T07:45:32.259Z,72.67
2023-04-27T07:48:02.548Z,71.76
2023-04-27T07:50:30.148Z,72.28
2023-04-27T07:52:57.258Z,71.54
2023-04-27T07:55:24.877Z,71.41
2023-04-27T07:57:54.757Z,70.09
2023-04-27T08:00:22.167Z,69.50
2023-04-27T08:02:49.612Z,69.15
2023-04-27T08:05:17.003Z,68.04
2023-04-27T08:07:45.195Z,67.14
2023-04-27T08:10:14.127Z,66.90
2023-04-27T08:12:41.150Z,66.29
2023-04-27T08:15:08.751Z,65.38
2023-04-27T08:17:37.458Z,64.99
2023-04-27T08:20:04.555Z,63.76
2023-04-27T08:22:31.631Z,63.14
2023-04-27T08:24:58.565Z,62.00
2023-04-27T08:27:25.427Z,62.20
2023-04-27T08:29:52.678Z,61.65
2023-04-27T08:32:19.485Z,60.62
2023-04-27T08:34:46.761Z,60.46
2023-04-27T08:37:13.650Z,59.45
2023-04-27T08:39:40.914Z,58.78
2023-04-27T08:42:13.894Z,56.69
2023-04-27T08:44:41.529Z,56.70
2023-04-27T08:47:09.315Z,56.76
2023-04-27T08:49:38.647Z,56.24
2023-04-27T08:52:12.407Z,55.68
2023-04-27T08:54:39.276Z,55.41
2023-04-27T08:57:24.344Z,54.21
2023-04-27T09:00:01.110Z,53.23
2023-04-27T09:02:32.184Z,53.20
2023-04-27T09:04:59.458Z,52.64
2023-04-27T09:07:28.528Z,52.10
2023-04-27T09:10:04.699Z,52.87
2023-04-27T09:12:31.523Z,50.82
2023-04-27T09:14:59.642Z,50.24
2023-04-27T09:17:30.754Z,49.83
2023-04-27T09:20:23.783Z,49.44
2023-04-27T09:22:53.154Z,49.14
2023-04-27T09:25:32.614Z,47.84
2023-04-27T09:28:00.260Z,46.54
2023-04-27T09:30:27.837Z,47.38
2023-04-27T09:32:54.667Z,48.21
2023-04-27T09:35:26.375Z,48.59
2023-04-27T09:37:53.589Z,48.87
2023-04-27T09:40:23.696Z,48.89
2023-04-27T09:42:50.832Z,49.58
2023-04-27T09:45:17.635Z,47.41
2023-04-27T09:47:44.637Z,47.77
2023-04-27T09:50:12.998Z,48.09
2023-04-27T09:52:39.807Z,47.78
2023-04-27T09:55:10.522Z,48.00
2023-04-27T09:57:56.211Z,47.06
2023-04-27T10:00:56.911Z,46.76
2023-04-27T10:04:01.109Z,46.78
2023-04-27T10:06:49.214Z,46.24
2023-04-27T10:09:17.592Z,45.51
2023-04-27T10:11:44.780Z,45.59
2023-04-27T10:14:18.699Z,44.70
2023-04-27T10:16:48.576Z,44.74
2023-04-27T10:19:15.754Z,43.52
2023-04-27T10:21:52.861Z,43.51
2023-04-27T10:24:19.643Z,42.78
2023-04-27T10:26:47.308Z,42.58
2023-04-27T10:29:16.655Z,41.42
2023-04-27T10:31:44.270Z,41.35
2023-04-27T10:34:11.875Z,40.88
2023-04-27T10:36:39.506Z,39.91
2023-04-27T10:39:20.180Z,38.86
2023-04-27T10:41:53.842Z,38.16
2023-04-27T10:44:25.910Z,37.52
2023-04-27T10:46:53.463Z,36.93
2023-04-27T10:49:20.502Z,36.29
2023-04-27T10:51:48.905Z,36.18
2023-04-27T10:54:15.630Z,35.68
2023-04-27T10:56:43.159Z,35.57
2023-04-27T10:59:09.916Z,35.70
2023-04-27T11:01:37.236Z,35.21
2023-04-27T11:04:04.666Z,34.99
2023-04-27T11:06:34.325Z,35.49
2023-04-27T11:09:01.639Z,35.60
2023-04-27T11:11:28.583Z,36.11
2023-04-27T11:13:56.303Z,35.45
2023-04-27T11:16:23.404Z,35.56
2023-04-27T11:18:50.352Z,36.11
2023-04-27T11:21:18.605Z,36.39
2023-04-27T11:23:45.596Z,36.75
2023-04-27T11:26:19.630Z,36.38
2023-04-27T11:28:57.296Z,36.53
2023-04-27T11:31:24.261Z,36.78
2023-04-27T11:33:52.146Z,36.56
2023-04-27T11:36:19.623Z,36.30
2023-04-27T11:38:46.586Z,36.14
2023-04-27T11:41:13.536Z,35.85
2023-04-27T11:43:46.386Z,35.32
2023-04-27T11:46:13.478Z,36.26
2023-04-27T11:48:40.720Z,35.23
2023-04-27T11:51:10.835Z,35.15
2023-04-27T11:53:38.905Z,35.06
2023-04-27T11:56:07.907Z,34.67
2023-04-27T11:58:36.272Z,34.85
2023-04-27T12:01:07.116Z,33.91
2023-04-27T12:03:35.591Z,34.59
2023-04-27T12:08:32.281Z,33.53
2023-04-27T12:10:59.076Z,33.64
2023-04-27T12:13:26.127Z,33.17
2023-04-27T12:15:52.888Z,32.79
2023-04-27T12:18:19.695Z,32.77
2023-04-27T12:20:47.237Z,32.18
2023-04-27T12:23:14.152Z,32.48
2023-04-27T12:25:41.294Z,32.39
2023-04-27T12:28:08.164Z,32.15
2023-04-27T12:30:35.130Z,32.03
2023-04-27T12:33:02.609Z,31.63
2023-04-27T12:35:32.297Z,31.97
2023-04-27T12:37:59.183Z,30.93
2023-04-27T12:40:26.135Z,30.43
2023-04-27T12:42:52.970Z,29.61
2023-04-27T12:45:19.844Z,29.64
2023-04-27T12:48:01.221Z,29.47
2023-04-27T12:50:29.804Z,29.93
2023-04-27T12:52:59.304Z,30.52
2023-04-27T12:55:33.679Z,30.23
2023-04-27T12:58:01.133Z,30.21
2023-04-27T13:00:29.519Z,30.03
2023-04-27T13:02:56.959Z,29.72
2023-04-27T13:05:23.985Z,29.24
2023-04-27T13:07:50.796Z,29.52
2023-04-27T13:10:17.684Z,30.32
2023-04-27T13:12:44.518Z,31.13
2023-04-27T13:15:11.490Z,32.16
2023-04-27T13:17:38.306Z,33.13
2023-04-27T13:20:06.756Z,34.18
2023-04-27T13:22:33.533Z,34.97
2023-04-27T13:25:00.527Z,35.84
2023-04-27T13:27:28.755Z,36.06
2023-04-27T13:29:56.191Z,37.07
2023-04-27T13:32:23.106Z,37.46
2023-04-27T13:34:50.134Z,38.09
2023-04-27T13:37:17.417Z,38.29
2023-04-27T13:39:44.241Z,38.71
2023-04-27T13:42:11.791Z,38.78
2023-04-27T13:44:38.746Z,38.97
2023-04-27T13:47:06.747Z,38.80
2023-04-27T13:49:33.899Z,39.24
2023-04-27T13:52:00.930Z,39.13
2023-04-27T13:54:28.260Z,39.24
2023-04-27T13:56:55.131Z,39.15
2023-04-27T13:59:21.978Z,39.04
2023-04-27T14:01:48.895Z,39.15
2023-04-27T14:04:15.909Z,39.28
2023-04-27T14:06:42.787Z,39.42
2023-04-27T14:09:09.531Z,38.92
2023-04-27T14:11:48.510Z,38.86
2023-04-27T14:14:19.621Z,39.33
2023-04-27T14:16:46.772Z,39.29
2023-04-27T14:19:16.269Z,39.23
2023-04-27T14:21:43.183Z,38.66
2023-04-27T14:24:10.232Z,39.07
2023-04-27T14:26:36.942Z,39.43
2023-04-27T14:29:03.683Z,39.55
2023-04-27T14:31:30.821Z,39.46
2023-04-27T14:33:57.823Z,39.83
2023-04-27T14:36:27.730Z,39.90
2023-04-27T14:38:54.621Z,40.07
2023-04-27T14:41:21.527Z,40.19
2023-04-27T14:43:48.962Z,40.50
2023-04-27T14:46:20.741Z,40.45
2023-04-27T14:48:48.584Z,40.55
2023-04-27T14:51:15.713Z,40.60
2023-04-27T14:53:42.998Z,40.39
2023-04-27T14:56:09.824Z,40.63
2023-04-27T14:58:36.543Z,40.80
2023-04-27T15:01:04.588Z,41.18
2023-04-27T15:03:32.891Z,41.20
2023-04-27T15:06:00.518Z,40.90
2023-04-27T15:08:27.550Z,41.22
2023-04-27T15:10:59.345Z,41.29
2023-04-27T15:13:26.893Z,41.26
2023-04-27T15:15:55.496Z,41.12
2023-04-27T15:18:22.662Z,41.51
2023-04-27T15:20:55.917Z,41.24
2023-04-27T15:23:23.260Z,41.51
2023-04-27T15:25:50.560Z,41.00
2023-04-27T15:28:17.893Z,40.91
2023-04-27T15:30:44.831Z,41.23
2023-04-27T15:33:12.093Z,41.32
2023-04-27T15:35:40.473Z,41.77
2023-04-27T15:38:08.199Z,41.96
2023-04-27T15:40:35.133Z,42.28
2023-04-27T15:43:02.006Z,42.16
2023-04-27T15:45:32.021Z,42.52
2023-04-27T15:47:58.938Z,42.03
2023-04-27T15:50:26.449Z,42.12
2023-04-27T15:52:54.008Z,42.10
2023-04-27T15:55:21.216Z,41.60
2023-04-27T15:57:48.140Z,41.33
2023-04-27T16:00:16.960Z,41.40
2023-04-27T16:02:43.977Z,41.57
2023-04-27T16:05:11.211Z,40.98
2023-04-27T16:07:39.835Z,41.37
2023-04-27T16:10:07.577Z,41.44
2023-04-27T16:12:34.648Z,41.29
2023-04-27T16:15:01.622Z,41.34
2023-04-27T16:17:29.250Z,41.25
2023-04-27T16:19:56.256Z,41.38
2023-04-27T16:22:23.014Z,40.91
2023-04-27T16:24:49.795Z,41.12
2023-04-27T16:27:20.938Z,41.03
2023-04-27T16:29:47.672Z,40.81
2023-04-27T16:32:14.581Z,41.07
2023-04-27T16:34:41.730Z,40.76
2023-04-27T16:37:08.485Z,40.98
2023-04-27T16:39:35.886Z,40.67
2023-04-27T16:42:03.334Z,40.25
2023-04-27T16:44:30.263Z,39.77
2023-04-27T16:46:57.128Z,39.73
2023-04-27T16:49:23.985Z,39.26
2023-04-27T16:51:51.404Z,39.51
2023-04-27T16:54:18.275Z,39.39
2023-04-27T16:56:45.967Z,39.59
2023-04-27T16:59:12.904Z,39.24
2023-04-27T17:01:40.532Z,39.74
2023-04-27T17:04:07.569Z,39.32
2023-04-27T17:06:35.011Z,39.08
2023-04-27T17:09:01.786Z,39.06
2023-04-27T17:11:28.590Z,38.59
2023-04-27T17:13:55.697Z,38.55
2023-04-27T17:16:23.510Z,38.70
2023-04-27T17:18:50.580Z,38.42
2023-04-27T17:21:17.597Z,37.73
2023-04-27T17:23:46.706Z,37.49
2023-04-27T17:26:16.030Z,37.25
2023-04-27T17:28:43.050Z,37.46
2023-04-27T17:31:09.845Z,37.49
2023-04-27T17:33:36.709Z,37.39
2023-04-27T17:36:03.940Z,37.56
2023-04-27T17:38:30.755Z,37.70
2023-04-27T17:40:57.612Z,37.69
2023-04-27T17:43:24.535Z,37.80
2023-04-27T17:45:51.283Z,37.94
2023-04-27T17:48:18.422Z,38.29
2023-04-27T17:50:45.295Z,38.70
2023-04-27T17:53:12.947Z,38.90
2023-04-27T17:55:39.911Z,38.87
2023-04-27T17:58:06.794Z,39.07
2023-04-27T18:00:33.650Z,39.45
2023-04-27T18:03:00.715Z,40.07
2023-04-27T18:05:28.824Z,40.38
2023-04-27T18:07:55.581Z,40.59
2023-04-27T18:10:22.344Z,40.47
2023-04-27T18:12:49.146Z,40.95
2023-04-27T18:15:16.035Z,41.49
2023-04-27T18:17:42.816Z,41.08
2023-04-27T18:20:10.721Z,41.28
2023-04-27T18:22:40.777Z,41.82
2023-04-27T18:25:09.327Z,41.95
2023-04-27T18:27:37.655Z,42.14
2023-04-27T18:30:08.693Z,42.77
2023-04-27T18:32:35.727Z,43.23
2023-04-27T18:35:03.064Z,43.29
2023-04-27T18:37:29.894Z,43.31
2023-04-27T18:39:56.725Z,43.73
2023-04-27T18:42:23.718Z,43.85
2023-04-27T18:44:54.750Z,44.13
2023-04-27T18:47:21.985Z,44.44
2023-04-27T18:49:48.990Z,44.42
2023-04-27T18:52:15.767Z,44.55
2023-04-27T18:54:42.730Z,44.35
2023-04-27T18:57:09.483Z,44.72
2023-04-27T18:59:38.843Z,44.78
2023-04-27T19:02:06.877Z,44.92
2023-04-27T19:04:34.159Z,45.48
2023-04-27T19:07:01.553Z,45.37
2023-04-27T19:09:28.508Z,45.99
2023-04-27T19:12:02.797Z,45.91
2023-04-27T19:14:31.352Z,45.89
2023-04-27T19:16:58.122Z,45.87
2023-04-27T19:19:26.116Z,46.63
2023-04-27T19:21:53.158Z,46.80
2023-04-27T19:24:20.001Z,46.98
2023-04-27T19:26:47.701Z,47.75
2023-04-27T19:29:14.929Z,47.51
2023-04-27T19:31:42.023Z,47.71
2023-04-27T19:34:08.789Z,47.83
2023-04-27T19:36:35.682Z,47.70
2023-04-27T19:39:02.424Z,47.83
2023-04-27T19:41:29.275Z,47.67
2023-04-27T19:43:56.075Z,47.52
2023-04-27T19:46:23.058Z,47.78
2023-04-27T19:48:50.161Z,48.37
2023-04-27T19:51:17.175Z,48.39
2023-04-27T19:53:44.100Z,48.24
2023-04-27T19:56:10.936Z,48.41
2023-04-27T19:58:37.737Z,48.94
2023-04-27T20:01:04.634Z,48.72
2023-04-27T20:03:31.795Z,48.95
2023-04-27T20:05:59.251Z,49.16
2023-04-27T20:08:26.386Z,49.27
2023-04-27T20:10:54.256Z,49.47
2023-04-27T20:13:21.180Z,49.76
2023-04-27T20:15:48.182Z,49.79
2023-04-27T20:18:15.030Z,50.15
2023-04-27T20:20:42.181Z,50.24
2023-04-27T20:23:09.094Z,50.37
2023-04-27T20:25:36.445Z,50.34
2023-04-27T20:28:03.193Z,50.81
2023-04-27T20:30:30.284Z,51.17
2023-04-27T20:32:57.220Z,51.11
2023-04-27T20:35:24.352Z,51.11
2023-04-27T20:37:52.178Z,50.89
2023-04-27T20:40:19.185Z,51.20
2023-04-27T20:42:46.244Z,51.03
2023-04-27T20:45:13.612Z,51.43
2023-04-27T20:47:40.959Z,51.45
2023-04-27T20:50:08.043Z,51.36
2023-04-27T20:52:35.185Z,51.31
2023-04-27T20:55:03.512Z,51.47
2023-04-27T20:57:30.736Z,51.29
2023-04-27T20:59:57.568Z,51.26
2023-04-27T21:02:24.355Z,51.58
2023-04-27T21:04:51.946Z,51.49
2023-04-27T21:07:18.934Z,51.70
2023-04-27T21:09:45.833Z,51.70
2023-04-27T21:12:14.775Z,51.78
2023-04-27T21:14:41.632Z,51.59
2023-04-27T21:17:08.490Z,51.75
2023-04-27T21:19:35.351Z,51.98
2023-04-27T21:22:02.246Z,52.13
2023-04-27T21:24:28.948Z,52.03
2023-04-27T21:26:55.914Z,52.05
2023-04-27T21:29:22.880Z,52.01
2023-04-27T21:31:49.612Z,51.93
2023-04-27T21:34:17.242Z,52.21
2023-04-27T21:36:44.276Z,52.01
2023-04-27T21:39:12.102Z,52.27
2023-04-27T21:41:39.941Z,52.29
2023-04-27T21:44:07.175Z,52.31
2023-04-27T21:46:34.047Z,52.50
2023-04-27T21:49:01.102Z,52.49
2023-04-27T21:51:28.199Z,52.52
2023-04-27T21:53:55.222Z,52.49
2023-04-27T21:56:22.550Z,52.98
2023-04-27T21:58:49.438Z,52.89
2023-04-27T22:01:16.218Z,53.07
2023-04-27T22:03:43.086Z,53.24
2023-04-27T22:06:10.108Z,53.58
2023-04-27T22:08:36.925Z,53.89
2023-04-27T22:11:03.954Z,53.66
2023-04-27T22:13:30.738Z,53.93
2023-04-27T22:15:57.809Z,54.13
2023-04-27T22:18:24.813Z,54.36
2023-04-27T22:20:51.823Z,54.58
2023-04-27T22:23:18.639Z,54.75
2023-04-27T22:25:45.845Z,55.16
2023-04-27T22:28:12.602Z,55.21
2023-04-27T22:30:40.811Z,55.31
2023-04-27T22:33:07.752Z,55.60
2023-04-27T22:35:34.691Z,55.83
2023-04-27T22:38:01.440Z,56.26
2023-04-27T22:40:28.433Z,56.62
2023-04-27T22:42:55.471Z,56.39
2023-04-27T22:45:22.975Z,56.51
2023-04-27T22:47:49.927Z,56.88
2023-04-27T22:50:17.163Z,57.15
2023-04-27T22:52:44.068Z,57.00
2023-04-27T22:55:11.557Z,57.08
2023-04-27T22:57:38.871Z,57.35
2023-04-27T23:00:06.226Z,57.41
2023-04-27T23:02:33.148Z,57.63
2023-04-27T23:05:00.219Z,57.78
2023-04-27T23:07:27.013Z,57.79
2023-04-27T23:09:55.194Z,57.95
2023-04-27T23:12:22.503Z,57.86
2023-04-27T23:14:49.317Z,57.78
2023-04-27T23:17:16.270Z,57.93
2023-04-27T23:19:42.975Z,58.12
2023-04-27T23:22:09.718Z,58.22
2023-04-27T23:24:36.543Z,58.39
2023-04-27T23:27:03.944Z,58.37
2023-04-27T23:29:30.952Z,58.44
2023-04-27T23:32:04.692Z,58.66
2023-04-27T23:34:34.341Z,58.64
2023-04-27T23:37:01.200Z,58.79
2023-04-27T23:39:28.613Z,58.93
2023-04-27T23:41:55.407Z,58.91
2023-04-27T23:44:22.257Z,59.04
2023-04-27T23:46:49.091Z,59.19
2023-04-27T23:49:16.150Z,59.19
2023-04-27T23:51:42.889Z,59.24
2023-04-27T23:54:09.885Z,59.31
2023-04-27T23:56:36.907Z,59.66
2023-04-27T23:59:03.705Z,59.79
